sensor_id;sensor_type;location;lat;lon;timestamp;P1;durP1;ratioP1;P2;durP2;ratioP2
11191;SDS011;5652;48.406;10.820;2022-10-13T00:00:45;98.53;;;12.15;;
11191;SDS011;5652;48.406;10.820;2022-10-13T00:03:14;118.40;;;12.63;;
11191;SDS011;5652;48.406;10.820;2022-10-13T00:05:41;52.40;;;11.45;;
11191;SDS011;5652;48.406;10.820;2022-10-13T00:08:09;62.87;;;11.77;;
11191;SDS011;5652;48.406;10.820;2022-10-13T00:10:37;67.80;;;12.20;;
11191;SDS011;5652;48.406;10.820;2022-10-13T00:13:04;89.27;;;12.63;;
11191;SDS011;5652;48.406;10.820;2022-10-13T00:15:31;40.92;;;10.50;;
11191;SDS011;5652;48.406;10.820;2022-10-13T00:17:58;48.65;;;10.63;;
11191;SDS011;5652;48.406;10.820;2022-10-13T00:20:27;45.47;;;11.05;;
11191;SDS011;5652;48.406;10.820;2022-10-13T00:22:54;102.50;;;11.98;;
11191;SDS011;5652;48.406;10.820;2022-10-13T00:25:21;75.43;;;11.63;;
11191;SDS011;5652;48.406;10.820;2022-10-13T00:27:48;78.25;;;11.60;;
11191;SDS011;5652;48.406;10.820;2022-10-13T00:30:15;51.83;;;10.75;;
11191;SDS011;5652;48.406;10.820;2022-10-13T00:32:42;81.75;;;12.65;;
11191;SDS011;5652;48.406;10.820;2022-10-13T00:35:10;64.47;;;12.33;;
11191;SDS011;5652;48.406;10.820;2022-10-13T00:37:38;116.25;;;14.48;;
11191;SDS011;5652;48.406;10.820;2022-10-13T00:40:05;270.30;;;17.83;;
11191;SDS011;5652;48.406;10.820;2022-10-13T00:42:33;144.33;;;15.33;;
11191;SDS011;5652;48.406;10.820;2022-10-13T00:45:03;110.13;;;12.93;;
11191;SDS011;5652;48.406;10.820;2022-10-13T00:47:32;193.77;;;16.50;;
11191;SDS011;5652;48.406;10.820;2022-10-13T00:50:00;111.47;;;14.43;;
11191;SDS011;5652;48.406;10.820;2022-10-13T00:52:28;101.55;;;13.38;;
11191;SDS011;5652;48.406;10.820;2022-10-13T00:54:57;100.47;;;13.73;;
11191;SDS011;5652;48.406;10.820;2022-10-13T00:57:25;169.45;;;15.90;;
11191;SDS011;5652;48.406;10.820;2022-10-13T00:59:52;99.60;;;13.73;;
11191;SDS011;5652;48.406;10.820;2022-10-13T01:02:19;128.73;;;15.15;;
11191;SDS011;5652;48.406;10.820;2022-10-13T01:04:47;140.30;;;14.70;;
11191;SDS011;5652;48.406;10.820;2022-10-13T01:07:15;84.97;;;13.13;;
11191;SDS011;5652;48.406;10.820;2022-10-13T01:09:42;80.90;;;13.60;;
11191;SDS011;5652;48.406;10.820;2022-10-13T01:12:13;97.60;;;13.57;;
11191;SDS011;5652;48.406;10.820;2022-10-13T01:14:44;180.70;;;15.85;;
11191;SDS011;5652;48.406;10.820;2022-10-13T01:17:13;161.45;;;15.45;;
11191;SDS011;5652;48.406;10.820;2022-10-13T01:19:51;190.18;;;17.80;;
11191;SDS011;5652;48.406;10.820;2022-10-13T01:22:26;113.82;;;14.38;;
11191;SDS011;5652;48.406;10.820;2022-10-13T01:24:59;126.60;;;14.05;;
11191;SDS011;5652;48.406;10.820;2022-10-13T01:27:55;109.00;;;13.30;;
11191;SDS011;5652;48.406;10.820;2022-10-13T01:30:25;233.50;;;17.42;;
11191;SDS011;5652;48.406;10.820;2022-10-13T01:32:58;195.68;;;16.60;;
11191;SDS011;5652;48.406;10.820;2022-10-13T01:35:29;164.13;;;16.35;;
11191;SDS011;5652;48.406;10.820;2022-10-13T01:38:01;107.00;;;13.95;;
11191;SDS011;5652;48.406;10.820;2022-10-13T01:40:31;119.95;;;13.52;;
11191;SDS011;5652;48.406;10.820;2022-10-13T01:43:03;194.57;;;15.93;;
11191;SDS011;5652;48.406;10.820;2022-10-13T01:45:34;85.13;;;12.68;;
11191;SDS011;5652;48.406;10.820;2022-10-13T01:48:02;150.32;;;14.70;;
11191;SDS011;5652;48.406;10.820;2022-10-13T01:50:31;122.97;;;13.73;;
11191;SDS011;5652;48.406;10.820;2022-10-13T01:52:59;76.00;;;13.38;;
11191;SDS011;5652;48.406;10.820;2022-10-13T01:55:27;51.03;;;10.75;;
11191;SDS011;5652;48.406;10.820;2022-10-13T01:57:55;59.95;;;11.93;;
11191;SDS011;5652;48.406;10.820;2022-10-13T02:00:22;40.92;;;11.98;;
11191;SDS011;5652;48.406;10.820;2022-10-13T02:02:55;45.42;;;11.68;;
11191;SDS011;5652;48.406;10.820;2022-10-13T02:05:25;32.57;;;11.03;;
11191;SDS011;5652;48.406;10.820;2022-10-13T02:07:58;32.45;;;11.50;;
11191;SDS011;5652;48.406;10.820;2022-10-13T02:10:29;144.13;;;15.38;;
11191;SDS011;5652;48.406;10.820;2022-10-13T02:12:59;76.78;;;13.10;;
11191;SDS011;5652;48.406;10.820;2022-10-13T02:15:28;145.15;;;14.88;;
11191;SDS011;5652;48.406;10.820;2022-10-13T02:17:58;163.77;;;15.60;;
11191;SDS011;5652;48.406;10.820;2022-10-13T02:20:26;31.63;;;11.57;;
11191;SDS011;5652;48.406;10.820;2022-10-13T02:22:55;37.80;;;11.93;;
11191;SDS011;5652;48.406;10.820;2022-10-13T02:25:23;49.22;;;12.25;;
11191;SDS011;5652;48.406;10.820;2022-10-13T02:27:51;45.78;;;12.57;;
11191;SDS011;5652;48.406;10.820;2022-10-13T02:30:19;53.35;;;12.70;;
11191;SDS011;5652;48.406;10.820;2022-10-13T02:32:47;36.60;;;11.68;;
11191;SDS011;5652;48.406;10.820;2022-10-13T02:35:16;35.78;;;11.70;;
11191;SDS011;5652;48.406;10.820;2022-10-13T02:37:43;35.88;;;12.30;;
11191;SDS011;5652;48.406;10.820;2022-10-13T02:40:10;34.43;;;12.03;;
11191;SDS011;5652;48.406;10.820;2022-10-13T02:42:38;26.70;;;12.00;;
11191;SDS011;5652;48.406;10.820;2022-10-13T02:45:05;31.08;;;11.85;;
11191;SDS011;5652;48.406;10.820;2022-10-13T02:47:33;27.42;;;11.43;;
11191;SDS011;5652;48.406;10.820;2022-10-13T02:50:00;26.20;;;11.53;;
11191;SDS011;5652;48.406;10.820;2022-10-13T02:52:28;29.27;;;11.43;;
11191;SDS011;5652;48.406;10.820;2022-10-13T02:54:55;29.70;;;12.60;;
11191;SDS011;5652;48.406;10.820;2022-10-13T02:57:23;28.95;;;11.15;;
11191;SDS011;5652;48.406;10.820;2022-10-13T02:59:50;28.07;;;11.37;;
11191;SDS011;5652;48.406;10.820;2022-10-13T03:02:17;23.92;;;11.00;;
11191;SDS011;5652;48.406;10.820;2022-10-13T03:04:44;22.45;;;11.00;;
11191;SDS011;5652;48.406;10.820;2022-10-13T03:07:11;28.35;;;11.00;;
11191;SDS011;5652;48.406;10.820;2022-10-13T03:09:39;22.55;;;10.75;;
11191;SDS011;5652;48.406;10.820;2022-10-13T03:12:07;23.45;;;10.98;;
11191;SDS011;5652;48.406;10.820;2022-10-13T03:14:34;22.02;;;10.68;;
11191;SDS011;5652;48.406;10.820;2022-10-13T03:17:01;20.85;;;11.02;;
11191;SDS011;5652;48.406;10.820;2022-10-13T03:19:28;24.67;;;11.40;;
11191;SDS011;5652;48.406;10.820;2022-10-13T03:21:56;25.67;;;11.18;;
11191;SDS011;5652;48.406;10.820;2022-10-13T03:24:23;25.55;;;11.43;;
11191;SDS011;5652;48.406;10.820;2022-10-13T03:26:51;21.52;;;10.23;;
11191;SDS011;5652;48.406;10.820;2022-10-13T03:29:18;21.65;;;10.48;;
11191;SDS011;5652;48.406;10.820;2022-10-13T03:31:46;23.20;;;11.37;;
11191;SDS011;5652;48.406;10.820;2022-10-13T03:34:14;21.05;;;10.50;;
11191;SDS011;5652;48.406;10.820;2022-10-13T03:36:42;21.95;;;11.05;;
11191;SDS011;5652;48.406;10.820;2022-10-13T03:39:09;20.92;;;10.70;;
11191;SDS011;5652;48.406;10.820;2022-10-13T03:41:37;22.02;;;10.93;;
11191;SDS011;5652;48.406;10.820;2022-10-13T03:44:05;21.58;;;11.20;;
11191;SDS011;5652;48.406;10.820;2022-10-13T03:46:32;20.05;;;11.20;;
11191;SDS011;5652;48.406;10.820;2022-10-13T03:49:00;22.80;;;10.98;;
11191;SDS011;5652;48.406;10.820;2022-10-13T03:51:27;19.70;;;10.02;;
11191;SDS011;5652;48.406;10.820;2022-10-13T03:53:54;20.55;;;10.85;;
11191;SDS011;5652;48.406;10.820;2022-10-13T03:56:22;23.00;;;11.15;;
11191;SDS011;5652;48.406;10.820;2022-10-13T03:58:50;23.83;;;10.70;;
11191;SDS011;5652;48.406;10.820;2022-10-13T04:01:20;22.48;;;10.77;;
11191;SDS011;5652;48.406;10.820;2022-10-13T04:03:47;22.20;;;10.88;;
11191;SDS011;5652;48.406;10.820;2022-10-13T04:06:14;22.27;;;10.48;;
11191;SDS011;5652;48.406;10.820;2022-10-13T04:08:41;20.50;;;10.65;;
11191;SDS011;5652;48.406;10.820;2022-10-13T04:11:10;20.50;;;10.73;;
11191;SDS011;5652;48.406;10.820;2022-10-13T04:13:37;18.85;;;10.65;;
11191;SDS011;5652;48.406;10.820;2022-10-13T04:16:05;21.67;;;10.43;;
11191;SDS011;5652;48.406;10.820;2022-10-13T04:18:34;21.13;;;9.82;;
11191;SDS011;5652;48.406;10.820;2022-10-13T04:21:05;19.17;;;10.55;;
11191;SDS011;5652;48.406;10.820;2022-10-13T04:23:32;19.50;;;9.77;;
11191;SDS011;5652;48.406;10.820;2022-10-13T04:25:59;21.98;;;10.50;;
11191;SDS011;5652;48.406;10.820;2022-10-13T04:28:27;18.55;;;10.52;;
11191;SDS011;5652;48.406;10.820;2022-10-13T04:30:54;18.63;;;9.30;;
11191;SDS011;5652;48.406;10.820;2022-10-13T04:33:21;20.05;;;10.65;;
11191;SDS011;5652;48.406;10.820;2022-10-13T04:35:49;21.02;;;9.65;;
11191;SDS011;5652;48.406;10.820;2022-10-13T04:38:16;19.10;;;10.25;;
11191;SDS011;5652;48.406;10.820;2022-10-13T04:40:44;20.25;;;9.70;;
11191;SDS011;5652;48.406;10.820;2022-10-13T04:43:11;20.88;;;10.55;;
11191;SDS011;5652;48.406;10.820;2022-10-13T04:45:39;19.77;;;9.90;;
11191;SDS011;5652;48.406;10.820;2022-10-13T04:48:06;19.48;;;9.98;;
11191;SDS011;5652;48.406;10.820;2022-10-13T04:50:34;19.73;;;9.75;;
11191;SDS011;5652;48.406;10.820;2022-10-13T04:53:02;19.60;;;9.60;;
11191;SDS011;5652;48.406;10.820;2022-10-13T04:55:29;18.40;;;10.10;;
11191;SDS011;5652;48.406;10.820;2022-10-13T04:57:57;17.13;;;9.90;;
11191;SDS011;5652;48.406;10.820;2022-10-13T05:00:24;20.27;;;10.15;;
11191;SDS011;5652;48.406;10.820;2022-10-13T05:02:51;15.50;;;9.13;;
11191;SDS011;5652;48.406;10.820;2022-10-13T05:05:18;16.52;;;9.40;;
11191;SDS011;5652;48.406;10.820;2022-10-13T05:07:45;19.38;;;9.60;;
11191;SDS011;5652;48.406;10.820;2022-10-13T05:10:13;17.83;;;9.60;;
11191;SDS011;5652;48.406;10.820;2022-10-13T05:12:41;16.40;;;8.95;;
11191;SDS011;5652;48.406;10.820;2022-10-13T05:15:08;19.13;;;9.77;;
11191;SDS011;5652;48.406;10.820;2022-10-13T05:17:35;17.73;;;9.35;;
11191;SDS011;5652;48.406;10.820;2022-10-13T05:20:02;15.83;;;9.33;;
11191;SDS011;5652;48.406;10.820;2022-10-13T05:22:30;17.10;;;9.25;;
11191;SDS011;5652;48.406;10.820;2022-10-13T05:24:57;17.33;;;9.17;;
11191;SDS011;5652;48.406;10.820;2022-10-13T05:27:25;17.27;;;9.13;;
11191;SDS011;5652;48.406;10.820;2022-10-13T05:29:52;17.00;;;9.30;;
11191;SDS011;5652;48.406;10.820;2022-10-13T05:32:19;14.95;;;9.02;;
11191;SDS011;5652;48.406;10.820;2022-10-13T05:34:46;16.75;;;9.23;;
11191;SDS011;5652;48.406;10.820;2022-10-13T05:37:14;17.42;;;9.88;;
11191;SDS011;5652;48.406;10.820;2022-10-13T05:39:42;16.75;;;9.02;;
11191;SDS011;5652;48.406;10.820;2022-10-13T05:42:09;17.17;;;9.48;;
11191;SDS011;5652;48.406;10.820;2022-10-13T05:44:37;15.35;;;9.15;;
11191;SDS011;5652;48.406;10.820;2022-10-13T05:47:05;14.80;;;9.23;;
11191;SDS011;5652;48.406;10.820;2022-10-13T05:49:32;16.10;;;9.43;;
11191;SDS011;5652;48.406;10.820;2022-10-13T05:52:01;16.90;;;9.60;;
11191;SDS011;5652;48.406;10.820;2022-10-13T05:54:29;17.67;;;10.27;;
11191;SDS011;5652;48.406;10.820;2022-10-13T05:57:00;17.05;;;9.25;;
11191;SDS011;5652;48.406;10.820;2022-10-13T05:59:28;17.43;;;9.93;;
11191;SDS011;5652;48.406;10.820;2022-10-13T06:01:57;18.30;;;9.55;;
11191;SDS011;5652;48.406;10.820;2022-10-13T06:04:26;17.83;;;9.68;;
11191;SDS011;5652;48.406;10.820;2022-10-13T06:06:56;14.80;;;9.07;;
11191;SDS011;5652;48.406;10.820;2022-10-13T06:09:23;15.05;;;8.73;;
11191;SDS011;5652;48.406;10.820;2022-10-13T06:11:50;15.63;;;9.57;;
11191;SDS011;5652;48.406;10.820;2022-10-13T06:14:17;15.13;;;9.52;;
11191;SDS011;5652;48.406;10.820;2022-10-13T06:16:44;16.65;;;9.52;;
11191;SDS011;5652;48.406;10.820;2022-10-13T06:19:13;17.00;;;9.50;;
11191;SDS011;5652;48.406;10.820;2022-10-13T06:21:40;15.43;;;9.00;;
11191;SDS011;5652;48.406;10.820;2022-10-13T06:24:07;16.92;;;9.45;;
11191;SDS011;5652;48.406;10.820;2022-10-13T06:26:34;17.80;;;9.73;;
11191;SDS011;5652;48.406;10.820;2022-10-13T06:29:01;14.90;;;8.83;;
11191;SDS011;5652;48.406;10.820;2022-10-13T06:31:28;16.60;;;9.38;;
11191;SDS011;5652;48.406;10.820;2022-10-13T06:33:56;16.20;;;9.87;;
11191;SDS011;5652;48.406;10.820;2022-10-13T06:36:25;16.90;;;10.05;;
11191;SDS011;5652;48.406;10.820;2022-10-13T06:38:52;17.38;;;10.35;;
11191;SDS011;5652;48.406;10.820;2022-10-13T06:41:19;19.45;;;10.60;;
11191;SDS011;5652;48.406;10.820;2022-10-13T06:43:46;15.32;;;9.93;;
11191;SDS011;5652;48.406;10.820;2022-10-13T06:46:13;40.00;;;18.07;;
11191;SDS011;5652;48.406;10.820;2022-10-13T06:48:41;31.08;;;14.80;;
11191;SDS011;5652;48.406;10.820;2022-10-13T06:51:08;18.73;;;10.60;;
11191;SDS011;5652;48.406;10.820;2022-10-13T06:53:37;24.93;;;12.80;;
11191;SDS011;5652;48.406;10.820;2022-10-13T06:56:05;19.50;;;11.57;;
11191;SDS011;5652;48.406;10.820;2022-10-13T06:58:34;20.17;;;10.93;;
11191;SDS011;5652;48.406;10.820;2022-10-13T07:01:02;17.05;;;9.95;;
11191;SDS011;5652;48.406;10.820;2022-10-13T07:03:29;15.10;;;9.60;;
11191;SDS011;5652;48.406;10.820;2022-10-13T07:05:58;17.70;;;9.15;;
11191;SDS011;5652;48.406;10.820;2022-10-13T07:08:26;17.43;;;9.17;;
11191;SDS011;5652;48.406;10.820;2022-10-13T07:10:54;13.88;;;8.43;;
11191;SDS011;5652;48.406;10.820;2022-10-13T07:13:22;16.58;;;9.38;;
11191;SDS011;5652;48.406;10.820;2022-10-13T07:15:51;13.93;;;9.38;;
11191;SDS011;5652;48.406;10.820;2022-10-13T07:18:18;13.90;;;9.43;;
11191;SDS011;5652;48.406;10.820;2022-10-13T07:20:45;14.40;;;9.07;;
11191;SDS011;5652;48.406;10.820;2022-10-13T07:23:12;16.45;;;9.90;;
11191;SDS011;5652;48.406;10.820;2022-10-13T07:25:39;18.58;;;10.50;;
11191;SDS011;5652;48.406;10.820;2022-10-13T07:28:08;18.77;;;10.48;;
11191;SDS011;5652;48.406;10.820;2022-10-13T07:30:37;14.77;;;9.27;;
11191;SDS011;5652;48.406;10.820;2022-10-13T07:33:04;14.82;;;9.68;;
11191;SDS011;5652;48.406;10.820;2022-10-13T07:35:31;17.00;;;9.43;;
11191;SDS011;5652;48.406;10.820;2022-10-13T07:37:59;16.08;;;9.80;;
11191;SDS011;5652;48.406;10.820;2022-10-13T07:40:26;16.37;;;10.90;;
11191;SDS011;5652;48.406;10.820;2022-10-13T07:42:54;22.77;;;13.70;;
11191;SDS011;5652;48.406;10.820;2022-10-13T07:45:23;18.02;;;11.60;;
11191;SDS011;5652;48.406;10.820;2022-10-13T07:47:50;15.90;;;10.25;;
11191;SDS011;5652;48.406;10.820;2022-10-13T07:50:17;15.10;;;9.93;;
11191;SDS011;5652;48.406;10.820;2022-10-13T07:52:45;15.15;;;9.82;;
11191;SDS011;5652;48.406;10.820;2022-10-13T07:55:12;14.23;;;9.57;;
11191;SDS011;5652;48.406;10.820;2022-10-13T07:57:39;15.20;;;9.90;;
11191;SDS011;5652;48.406;10.820;2022-10-13T08:00:06;13.98;;;8.57;;
11191;SDS011;5652;48.406;10.820;2022-10-13T08:02:35;12.82;;;8.70;;
11191;SDS011;5652;48.406;10.820;2022-10-13T08:05:10;12.35;;;8.30;;
11191;SDS011;5652;48.406;10.820;2022-10-13T08:07:37;14.35;;;8.57;;
11191;SDS011;5652;48.406;10.820;2022-10-13T08:10:05;12.98;;;8.35;;
11191;SDS011;5652;48.406;10.820;2022-10-13T08:12:33;12.98;;;8.75;;
11191;SDS011;5652;48.406;10.820;2022-10-13T08:15:01;13.90;;;8.57;;
11191;SDS011;5652;48.406;10.820;2022-10-13T08:17:28;13.20;;;8.52;;
11191;SDS011;5652;48.406;10.820;2022-10-13T08:19:57;15.23;;;8.45;;
11191;SDS011;5652;48.406;10.820;2022-10-13T08:22:24;13.80;;;8.60;;
11191;SDS011;5652;48.406;10.820;2022-10-13T08:24:51;13.13;;;8.15;;
11191;SDS011;5652;48.406;10.820;2022-10-13T08:27:19;18.10;;;9.82;;
11191;SDS011;5652;48.406;10.820;2022-10-13T08:29:46;15.68;;;9.20;;
11191;SDS011;5652;48.406;10.820;2022-10-13T08:32:13;14.73;;;9.33;;
11191;SDS011;5652;48.406;10.820;2022-10-13T08:34:40;14.73;;;9.88;;
11191;SDS011;5652;48.406;10.820;2022-10-13T08:37:12;15.60;;;10.20;;
11191;SDS011;5652;48.406;10.820;2022-10-13T08:39:40;17.77;;;9.75;;
11191;SDS011;5652;48.406;10.820;2022-10-13T08:42:11;13.27;;;8.83;;
11191;SDS011;5652;48.406;10.820;2022-10-13T08:44:40;16.40;;;10.73;;
11191;SDS011;5652;48.406;10.820;2022-10-13T08:47:10;19.40;;;10.85;;
11191;SDS011;5652;48.406;10.820;2022-10-13T08:49:40;15.13;;;10.20;;
11191;SDS011;5652;48.406;10.820;2022-10-13T08:52:10;17.50;;;9.82;;
11191;SDS011;5652;48.406;10.820;2022-10-13T08:54:43;14.80;;;9.82;;
11191;SDS011;5652;48.406;10.820;2022-10-13T08:57:10;16.13;;;8.80;;
11191;SDS011;5652;48.406;10.820;2022-10-13T08:59:38;14.47;;;9.33;;
11191;SDS011;5652;48.406;10.820;2022-10-13T09:02:08;14.48;;;9.10;;
11191;SDS011;5652;48.406;10.820;2022-10-13T09:04:38;13.52;;;9.65;;
11191;SDS011;5652;48.406;10.820;2022-10-13T09:07:09;15.95;;;9.40;;
11191;SDS011;5652;48.406;10.820;2022-10-13T09:09:37;15.13;;;9.05;;
11191;SDS011;5652;48.406;10.820;2022-10-13T09:12:08;17.75;;;9.30;;
11191;SDS011;5652;48.406;10.820;2022-10-13T09:14:36;13.45;;;9.02;;
11191;SDS011;5652;48.406;10.820;2022-10-13T09:17:12;18.33;;;9.73;;
11191;SDS011;5652;48.406;10.820;2022-10-13T09:19:39;14.30;;;9.20;;
11191;SDS011;5652;48.406;10.820;2022-10-13T09:22:13;16.85;;;10.00;;
11191;SDS011;5652;48.406;10.820;2022-10-13T09:24:40;17.42;;;9.50;;
11191;SDS011;5652;48.406;10.820;2022-10-13T09:27:11;15.43;;;9.50;;
11191;SDS011;5652;48.406;10.820;2022-10-13T09:29:39;16.05;;;9.73;;
11191;SDS011;5652;48.406;10.820;2022-10-13T09:32:08;15.55;;;9.13;;
11191;SDS011;5652;48.406;10.820;2022-10-13T09:34:40;15.00;;;9.02;;
11191;SDS011;5652;48.406;10.820;2022-10-13T09:37:15;18.08;;;9.45;;
11191;SDS011;5652;48.406;10.820;2022-10-13T09:39:42;14.65;;;8.73;;
11191;SDS011;5652;48.406;10.820;2022-10-13T09:42:19;15.25;;;9.32;;
11191;SDS011;5652;48.406;10.820;2022-10-13T09:44:46;16.23;;;8.30;;
11191;SDS011;5652;48.406;10.820;2022-10-13T09:47:16;12.00;;;7.85;;
11191;SDS011;5652;48.406;10.820;2022-10-13T09:49:45;13.52;;;8.05;;
11191;SDS011;5652;48.406;10.820;2022-10-13T09:52:23;14.30;;;8.10;;
11191;SDS011;5652;48.406;10.820;2022-10-13T09:54:51;14.15;;;8.30;;
11191;SDS011;5652;48.406;10.820;2022-10-13T09:57:21;14.97;;;8.30;;
11191;SDS011;5652;48.406;10.820;2022-10-13T09:59:51;16.95;;;8.48;;
11191;SDS011;5652;48.406;10.820;2022-10-13T10:02:21;14.48;;;7.93;;
11191;SDS011;5652;48.406;10.820;2022-10-13T10:04:49;13.95;;;7.57;;
11191;SDS011;5652;48.406;10.820;2022-10-13T10:07:19;13.77;;;8.30;;
11191;SDS011;5652;48.406;10.820;2022-10-13T10:09:48;15.77;;;8.07;;
11191;SDS011;5652;48.406;10.820;2022-10-13T10:12:17;15.60;;;8.20;;
11191;SDS011;5652;48.406;10.820;2022-10-13T10:14:46;13.73;;;7.90;;
11191;SDS011;5652;48.406;10.820;2022-10-13T10:17:16;14.13;;;7.50;;
11191;SDS011;5652;48.406;10.820;2022-10-13T10:19:51;14.53;;;7.13;;
11191;SDS011;5652;48.406;10.820;2022-10-13T10:22:24;12.60;;;6.90;;
11191;SDS011;5652;48.406;10.820;2022-10-13T10:24:59;10.57;;;6.85;;
11191;SDS011;5652;48.406;10.820;2022-10-13T10:27:30;12.60;;;7.45;;
11191;SDS011;5652;48.406;10.820;2022-10-13T10:30:01;9.98;;;6.30;;
11191;SDS011;5652;48.406;10.820;2022-10-13T10:32:32;10.15;;;6.95;;
11191;SDS011;5652;48.406;10.820;2022-10-13T10:35:01;10.75;;;6.32;;
11191;SDS011;5652;48.406;10.820;2022-10-13T10:37:34;10.57;;;6.18;;
11191;SDS011;5652;48.406;10.820;2022-10-13T10:40:04;13.75;;;7.57;;
11191;SDS011;5652;48.406;10.820;2022-10-13T10:42:51;11.27;;;6.63;;
11191;SDS011;5652;48.406;10.820;2022-10-13T10:45:21;12.55;;;7.07;;
11191;SDS011;5652;48.406;10.820;2022-10-13T10:47:51;11.50;;;6.77;;
11191;SDS011;5652;48.406;10.820;2022-10-13T10:50:20;13.75;;;7.75;;
11191;SDS011;5652;48.406;10.820;2022-10-13T10:52:49;13.05;;;6.65;;
11191;SDS011;5652;48.406;10.820;2022-10-13T10:55:19;14.32;;;7.03;;
11191;SDS011;5652;48.406;10.820;2022-10-13T10:57:52;12.57;;;6.47;;
11191;SDS011;5652;48.406;10.820;2022-10-13T11:00:24;9.80;;;5.93;;
11191;SDS011;5652;48.406;10.820;2022-10-13T11:02:53;10.93;;;5.68;;
11191;SDS011;5652;48.406;10.820;2022-10-13T11:05:23;9.65;;;6.57;;
11191;SDS011;5652;48.406;10.820;2022-10-13T11:07:54;12.95;;;6.60;;
11191;SDS011;5652;48.406;10.820;2022-10-13T11:10:22;10.60;;;6.20;;
11191;SDS011;5652;48.406;10.820;2022-10-13T11:15:52;14.68;;;6.10;;
11191;SDS011;5652;48.406;10.820;2022-10-13T11:21:05;11.95;;;6.45;;
11191;SDS011;5652;48.406;10.820;2022-10-13T11:23:32;10.93;;;6.13;;
11191;SDS011;5652;48.406;10.820;2022-10-13T11:26:19;12.40;;;7.10;;
11191;SDS011;5652;48.406;10.820;2022-10-13T11:28:53;10.73;;;6.40;;
11191;SDS011;5652;48.406;10.820;2022-10-13T11:31:29;10.13;;;5.80;;
11191;SDS011;5652;48.406;10.820;2022-10-13T11:33:58;14.52;;;5.38;;
11191;SDS011;5652;48.406;10.820;2022-10-13T11:39:30;10.80;;;6.10;;
11191;SDS011;5652;48.406;10.820;2022-10-13T11:42:02;12.85;;;6.07;;
11191;SDS011;5652;48.406;10.820;2022-10-13T11:44:32;15.50;;;6.90;;
11191;SDS011;5652;48.406;10.820;2022-10-13T11:47:05;14.55;;;6.38;;
11191;SDS011;5652;48.406;10.820;2022-10-13T11:49:56;12.23;;;6.32;;
11191;SDS011;5652;48.406;10.820;2022-10-13T11:52:30;12.60;;;5.90;;
11191;SDS011;5652;48.406;10.820;2022-10-13T11:55:05;15.15;;;6.38;;
11191;SDS011;5652;48.406;10.820;2022-10-13T11:57:36;10.15;;;6.22;;
11191;SDS011;5652;48.406;10.820;2022-10-13T12:00:10;11.15;;;5.97;;
11191;SDS011;5652;48.406;10.820;2022-10-13T12:02:46;12.10;;;6.10;;
11191;SDS011;5652;48.406;10.820;2022-10-13T12:05:18;11.20;;;6.40;;
11191;SDS011;5652;48.406;10.820;2022-10-13T12:07:46;16.17;;;6.57;;
11191;SDS011;5652;48.406;10.820;2022-10-13T12:10:15;13.07;;;6.50;;
11191;SDS011;5652;48.406;10.820;2022-10-13T12:12:44;11.03;;;6.13;;
11191;SDS011;5652;48.406;10.820;2022-10-13T12:15:25;11.87;;;6.00;;
11191;SDS011;5652;48.406;10.820;2022-10-13T12:17:55;11.40;;;6.05;;
11191;SDS011;5652;48.406;10.820;2022-10-13T12:20:23;9.27;;;5.95;;
11191;SDS011;5652;48.406;10.820;2022-10-13T12:22:50;12.05;;;5.82;;
11191;SDS011;5652;48.406;10.820;2022-10-13T12:25:18;9.23;;;5.50;;
11191;SDS011;5652;48.406;10.820;2022-10-13T12:27:46;10.30;;;6.17;;
11191;SDS011;5652;48.406;10.820;2022-10-13T12:30:19;12.02;;;6.10;;
11191;SDS011;5652;48.406;10.820;2022-10-13T12:32:47;12.97;;;5.97;;
11191;SDS011;5652;48.406;10.820;2022-10-13T12:35:18;11.70;;;5.45;;
11191;SDS011;5652;48.406;10.820;2022-10-13T12:37:45;11.37;;;5.73;;
11191;SDS011;5652;48.406;10.820;2022-10-13T12:40:12;12.00;;;5.97;;
11191;SDS011;5652;48.406;10.820;2022-10-13T12:42:41;12.13;;;6.35;;
11191;SDS011;5652;48.406;10.820;2022-10-13T12:45:12;9.93;;;6.13;;
11191;SDS011;5652;48.406;10.820;2022-10-13T12:47:45;11.35;;;5.90;;
11191;SDS011;5652;48.406;10.820;2022-10-13T12:50:21;9.48;;;5.68;;
11191;SDS011;5652;48.406;10.820;2022-10-13T12:52:48;12.38;;;5.75;;
11191;SDS011;5652;48.406;10.820;2022-10-13T12:55:16;13.55;;;6.47;;
11191;SDS011;5652;48.406;10.820;2022-10-13T12:57:45;13.43;;;6.33;;
11191;SDS011;5652;48.406;10.820;2022-10-13T13:00:19;13.63;;;5.82;;
11191;SDS011;5652;48.406;10.820;2022-10-13T13:02:49;11.60;;;6.38;;
11191;SDS011;5652;48.406;10.820;2022-10-13T13:05:31;11.45;;;6.57;;
11191;SDS011;5652;48.406;10.820;2022-10-13T13:07:59;12.93;;;6.25;;
11191;SDS011;5652;48.406;10.820;2022-10-13T13:10:26;12.02;;;6.00;;
11191;SDS011;5652;48.406;10.820;2022-10-13T13:12:54;13.45;;;6.22;;
11191;SDS011;5652;48.406;10.820;2022-10-13T13:15:32;11.17;;;6.03;;
11191;SDS011;5652;48.406;10.820;2022-10-13T13:20:47;10.23;;;5.30;;
11191;SDS011;5652;48.406;10.820;2022-10-13T13:23:14;9.75;;;5.57;;
11191;SDS011;5652;48.406;10.820;2022-10-13T13:25:43;11.57;;;5.18;;
11191;SDS011;5652;48.406;10.820;2022-10-13T13:28:10;9.85;;;5.45;;
11191;SDS011;5652;48.406;10.820;2022-10-13T13:30:38;11.00;;;5.28;;
11191;SDS011;5652;48.406;10.820;2022-10-13T13:33:06;11.30;;;5.73;;
11191;SDS011;5652;48.406;10.820;2022-10-13T13:35:34;7.35;;;5.10;;
11191;SDS011;5652;48.406;10.820;2022-10-13T13:38:02;11.73;;;5.90;;
11191;SDS011;5652;48.406;10.820;2022-10-13T13:40:30;10.15;;;5.80;;
11191;SDS011;5652;48.406;10.820;2022-10-13T13:42:57;9.95;;;5.45;;
11191;SDS011;5652;48.406;10.820;2022-10-13T13:45:24;8.27;;;5.10;;
11191;SDS011;5652;48.406;10.820;2022-10-13T13:47:51;8.25;;;4.90;;
11191;SDS011;5652;48.406;10.820;2022-10-13T13:50:19;13.52;;;5.60;;
11191;SDS011;5652;48.406;10.820;2022-10-13T13:52:46;9.25;;;5.35;;
11191;SDS011;5652;48.406;10.820;2022-10-13T13:55:15;10.40;;;5.32;;
11191;SDS011;5652;48.406;10.820;2022-10-13T13:57:43;13.20;;;5.40;;
11191;SDS011;5652;48.406;10.820;2022-10-13T14:00:10;9.57;;;5.47;;
11191;SDS011;5652;48.406;10.820;2022-10-13T14:02:38;9.10;;;5.45;;
11191;SDS011;5652;48.406;10.820;2022-10-13T14:05:06;10.17;;;5.60;;
11191;SDS011;5652;48.406;10.820;2022-10-13T14:07:34;10.60;;;5.68;;
11191;SDS011;5652;48.406;10.820;2022-10-13T14:10:01;7.55;;;4.97;;
11191;SDS011;5652;48.406;10.820;2022-10-13T14:12:30;10.13;;;5.45;;
11191;SDS011;5652;48.406;10.820;2022-10-13T14:14:57;15.02;;;5.75;;
11191;SDS011;5652;48.406;10.820;2022-10-13T14:17:25;9.05;;;5.03;;
11191;SDS011;5652;48.406;10.820;2022-10-13T14:19:52;10.23;;;5.47;;
11191;SDS011;5652;48.406;10.820;2022-10-13T14:22:19;9.60;;;5.20;;
11191;SDS011;5652;48.406;10.820;2022-10-13T14:24:47;10.15;;;5.68;;
11191;SDS011;5652;48.406;10.820;2022-10-13T14:27:14;11.18;;;5.75;;
11191;SDS011;5652;48.406;10.820;2022-10-13T14:29:42;9.00;;;5.85;;
11191;SDS011;5652;48.406;10.820;2022-10-13T14:32:09;11.45;;;5.93;;
11191;SDS011;5652;48.406;10.820;2022-10-13T14:34:36;10.70;;;5.78;;
11191;SDS011;5652;48.406;10.820;2022-10-13T14:37:04;12.20;;;5.13;;
11191;SDS011;5652;48.406;10.820;2022-10-13T14:39:31;11.83;;;5.73;;
11191;SDS011;5652;48.406;10.820;2022-10-13T14:41:58;8.98;;;5.68;;
11191;SDS011;5652;48.406;10.820;2022-10-13T14:44:25;10.82;;;5.93;;
11191;SDS011;5652;48.406;10.820;2022-10-13T14:46:53;9.65;;;5.60;;
11191;SDS011;5652;48.406;10.820;2022-10-13T14:49:21;11.63;;;6.10;;